createdAt,value
2023-03-26T00:02:00.683Z,48.90
2023-03-26T00:04:29.440Z,45.28
2023-03-26T00:06:58.183Z,47.92
2023-03-26T00:09:26.932Z,51.45
2023-03-26T00:11:56.555Z,48.42
2023-03-26T00:14:25.341Z,46.75
2023-03-26T00:16:54.684Z,49.15
2023-03-26T00:19:23.822Z,47.33
2023-03-26T00:21:54.151Z,46.95
2023-03-26T00:24:30.358Z,47.13
2023-03-26T00:27:00.671Z,46.58
2023-03-26T00:29:29.392Z,49.30
2023-03-26T00:31:58.378Z,46.67
2023-03-26T00:34:27.832Z,49.80
2023-03-26T00:36:56.808Z,47.53
2023-03-26T00:39:25.501Z,49.03
2023-03-26T00:41:55.280Z,49.67
2023-03-26T00:44:24.286Z,49.92
2023-03-26T00:46:53.637Z,48.67
2023-03-26T00:49:22.341Z,47.00
2023-03-26T00:51:51.093Z,47.03
2023-03-26T00:54:20.072Z,47.20
2023-03-26T00:56:48.959Z,47.78
2023-03-26T00:59:18.044Z,49.47
2023-03-26T01:01:48.001Z,48.60
2023-03-26T01:04:28.525Z,47.50
2023-03-26T01:07:01.878Z,47.97
2023-03-26T01:09:37.588Z,44.92
2023-03-26T01:12:08.668Z,46.05
2023-03-26T01:14:37.994Z,48.10
2023-03-26T01:17:10.080Z,46.15
2023-03-26T01:20:01.244Z,46.63
2023-03-26T01:22:29.968Z,44.60
2023-03-26T01:24:58.704Z,45.20
2023-03-26T01:27:36.685Z,44.17
2023-03-26T01:30:15.139Z,42.60
2023-03-26T01:33:02.901Z,41.33
2023-03-26T01:35:51.977Z,39.60
2023-03-26T01:38:56.361Z,40.67
2023-03-26T01:42:00.730Z,40.65
2023-03-26T01:44:41.775Z,38.38
2023-03-26T01:47:13.097Z,40.38
2023-03-26T01:49:41.846Z,38.47
2023-03-26T01:52:23.248Z,36.65
2023-03-26T01:54:52.309Z,35.47
2023-03-26T01:57:23.965Z,32.92
2023-03-26T02:00:19.212Z,32.45
2023-03-26T02:03:04.452Z,33.20
2023-03-26T02:05:48.141Z,32.13
2023-03-26T02:08:25.356Z,30.25
2023-03-26T02:10:58.683Z,29.92
2023-03-26T02:13:27.707Z,30.50
2023-03-26T02:16:01.883Z,29.30
2023-03-26T02:18:37.201Z,29.67
2023-03-26T02:21:11.253Z,28.42
2023-03-26T02:23:41.983Z,31.25
2023-03-26T02:26:12.473Z,29.65
2023-03-26T02:28:41.553Z,29.20
2023-03-26T02:31:12.052Z,28.25
2023-03-26T02:33:41.156Z,27.63
2023-03-26T02:36:10.219Z,28.38
2023-03-26T02:38:39.050Z,33.00
2023-03-26T02:41:07.831Z,28.90
2023-03-26T02:43:36.660Z,29.35
2023-03-26T02:46:05.636Z,26.63
2023-03-26T02:48:37.421Z,27.35
2023-03-26T02:51:07.693Z,28.47
2023-03-26T02:53:38.405Z,31.38
2023-03-26T02:56:07.694Z,24.92
2023-03-26T02:58:36.386Z,26.45
2023-03-26T03:01:06.338Z,27.05
2023-03-26T03:03:36.320Z,44.05
2023-03-26T03:06:05.263Z,26.23
2023-03-26T03:08:35.005Z,25.58
2023-03-26T03:11:10.219Z,29.88
2023-03-26T03:13:39.031Z,25.35
2023-03-26T03:16:08.774Z,24.08
2023-03-26T03:18:38.571Z,24.58
2023-03-26T03:21:07.866Z,26.42
2023-03-26T03:23:36.882Z,26.35
2023-03-26T03:26:07.689Z,25.73
2023-03-26T03:28:36.498Z,26.30
2023-03-26T03:31:06.844Z,24.60
2023-03-26T03:33:36.724Z,27.35
2023-03-26T03:36:20.828Z,24.08
2023-03-26T03:38:52.134Z,30.67
2023-03-26T03:41:20.919Z,24.88
2023-03-26T03:43:49.714Z,25.67
2023-03-26T03:46:18.500Z,26.13
2023-03-26T03:48:50.690Z,25.88
2023-03-26T03:51:19.998Z,30.70
2023-03-26T03:53:49.020Z,24.67
2023-03-26T03:56:20.075Z,26.50
2023-03-26T03:58:49.023Z,27.15
2023-03-26T04:01:18.230Z,27.15
2023-03-26T04:03:47.204Z,26.17
2023-03-26T04:06:19.747Z,26.17
2023-03-26T04:08:48.635Z,27.20
2023-03-26T04:11:17.403Z,25.60
2023-03-26T04:13:46.917Z,26.42
2023-03-26T04:16:16.337Z,28.08
2023-03-26T04:18:47.461Z,29.30
2023-03-26T04:21:16.815Z,28.45
2023-03-26T04:23:46.206Z,27.35
2023-03-26T04:26:19.557Z,29.73
2023-03-26T04:28:54.335Z,30.48
2023-03-26T04:31:29.947Z,29.90
2023-03-26T04:34:06.524Z,28.77
2023-03-26T04:36:36.514Z,30.88
2023-03-26T04:39:06.310Z,30.25
2023-03-26T04:41:35.052Z,28.65
2023-03-26T04:44:03.894Z,28.55
2023-03-26T04:46:34.519Z,29.13
2023-03-26T04:49:03.722Z,30.42
2023-03-26T04:51:39.551Z,30.65
2023-03-26T04:54:08.997Z,31.60
2023-03-26T04:56:54.996Z,29.90
2023-03-26T04:59:31.279Z,29.63
2023-03-26T05:02:01.216Z,31.33
2023-03-26T05:04:31.530Z,29.08
2023-03-26T05:07:00.666Z,29.05
2023-03-26T05:09:29.839Z,29.00
2023-03-26T05:11:59.365Z,28.70
2023-03-26T05:14:28.060Z,27.13
2023-03-26T05:16:56.888Z,25.58
2023-03-26T05:19:25.665Z,24.75
2023-03-26T05:21:54.577Z,24.20
2023-03-26T05:24:25.570Z,21.23
2023-03-26T05:26:54.355Z,20.17
2023-03-26T05:29:25.107Z,20.52
2023-03-26T05:31:53.906Z,25.45
2023-03-26T05:34:27.354Z,23.65
2023-03-26T05:36:56.447Z,22.33
2023-03-26T05:39:27.490Z,21.25
2023-03-26T05:41:56.373Z,19.02
2023-03-26T05:44:25.132Z,18.77
2023-03-26T05:46:53.886Z,20.52
2023-03-26T05:49:22.935Z,20.83
2023-03-26T05:51:52.765Z,19.27
2023-03-26T05:54:23.135Z,20.95
2023-03-26T05:56:52.234Z,21.27
2023-03-26T05:59:21.013Z,22.17
2023-03-26T06:01:51.792Z,26.27
2023-03-26T06:04:21.061Z,21.45
2023-03-26T06:06:49.874Z,20.67
2023-03-26T06:09:19.617Z,22.45
2023-03-26T06:11:48.583Z,21.58
2023-03-26T06:14:17.988Z,22.45
2023-03-26T06:16:46.708Z,23.50
2023-03-26T06:19:15.586Z,23.48
2023-03-26T06:21:44.294Z,22.35
2023-03-26T06:24:13.129Z,24.92
2023-03-26T06:26:42.136Z,24.27
2023-03-26T06:29:11.404Z,24.23
2023-03-26T06:31:40.166Z,24.75
2023-03-26T06:34:09.500Z,28.38
2023-03-26T06:36:38.225Z,25.00
2023-03-26T06:39:07.590Z,24.10
2023-03-26T06:41:37.552Z,23.67
2023-03-26T06:44:06.260Z,22.50
2023-03-26T06:46:35.023Z,22.48
2023-03-26T06:49:04.107Z,22.00
2023-03-26T06:51:32.909Z,22.60
2023-03-26T06:54:01.796Z,23.17
2023-03-26T06:56:30.632Z,22.42
2023-03-26T06:58:59.492Z,20.88
2023-03-26T07:01:28.238Z,22.55
2023-03-26T07:03:57.183Z,22.17
2023-03-26T07:06:28.870Z,22.60
2023-03-26T07:08:58.422Z,21.30
2023-03-26T07:11:27.953Z,21.70
2023-03-26T07:14:00.499Z,22.33
2023-03-26T07:16:29.325Z,23.13
2023-03-26T07:18:58.130Z,20.20
2023-03-26T07:21:27.249Z,20.88
2023-03-26T07:23:56.710Z,21.58
2023-03-26T07:26:32.471Z,23.52
2023-03-26T07:29:14.454Z,22.65
2023-03-26T07:32:01.949Z,22.90
2023-03-26T07:34:39.509Z,21.65
2023-03-26T07:37:28.176Z,21.48
2023-03-26T07:40:09.851Z,23.15
2023-03-26T07:42:41.492Z,25.50
2023-03-26T07:45:26.100Z,63.77
2023-03-26T07:47:56.309Z,23.30
2023-03-26T07:50:26.541Z,24.08
2023-03-26T07:52:55.543Z,23.55
2023-03-26T07:55:25.564Z,24.27
2023-03-26T07:57:56.423Z,22.52
2023-03-26T08:00:35.296Z,22.75
2023-03-26T08:03:27.838Z,22.70
2023-03-26T08:06:17.404Z,23.20
2023-03-26T08:09:06.160Z,26.13
2023-03-26T08:11:36.824Z,25.02
2023-03-26T08:14:22.783Z,24.88
2023-03-26T08:17:12.152Z,25.40
2023-03-26T08:19:52.801Z,25.40
2023-03-26T08:22:28.344Z,24.38
2023-03-26T08:25:18.863Z,24.70
2023-03-26T08:27:50.642Z,26.35
2023-03-26T08:30:23.272Z,26.10
2023-03-26T08:32:59.041Z,25.80
2023-03-26T08:35:29.572Z,25.08
2023-03-26T08:37:58.771Z,24.70
2023-03-26T08:40:53.737Z,24.55
2023-03-26T08:43:46.124Z,26.70
2023-03-26T08:46:16.817Z,25.58
2023-03-26T08:48:49.991Z,26.42
2023-03-26T08:51:50.105Z,26.00
2023-03-26T08:54:36.200Z,25.92
2023-03-26T08:57:32.289Z,26.27
2023-03-26T09:00:18.262Z,27.30
2023-03-26T09:03:06.289Z,27.70
2023-03-26T09:06:03.732Z,41.40
2023-03-26T09:08:54.388Z,27.23
2023-03-26T09:12:02.594Z,27.25
2023-03-26T09:14:49.681Z,28.05
2023-03-26T09:17:38.512Z,27.60
2023-03-26T09:20:27.300Z,25.35
2023-03-26T09:23:08.099Z,24.25
2023-03-26T09:25:44.313Z,23.52
2023-03-26T09:28:45.892Z,28.23
2023-03-26T09:31:34.747Z,24.63
2023-03-26T09:34:31.034Z,24.75
2023-03-26T09:37:19.928Z,25.15
2023-03-26T09:40:16.379Z,23.92
2023-03-26T09:43:08.717Z,23.77
2023-03-26T09:46:13.076Z,22.67
2023-03-26T09:49:05.497Z,23.45
2023-03-26T09:51:38.605Z,24.15
2023-03-26T09:54:30.937Z,21.95
2023-03-26T09:57:05.086Z,23.00
2023-03-26T09:59:49.595Z,23.90
2023-03-26T10:02:46.514Z,21.35
2023-03-26T10:05:21.605Z,20.80
2023-03-26T10:07:53.234Z,20.92
2023-03-26T10:10:50.985Z,21.17
2023-03-26T10:13:40.896Z,19.48
2023-03-26T10:16:18.318Z,20.60
2023-03-26T10:19:26.300Z,19.88
2023-03-26T10:22:05.377Z,21.05
2023-03-26T10:24:50.583Z,21.08
2023-03-26T10:27:27.340Z,21.55
2023-03-26T10:30:17.224Z,21.52
2023-03-26T10:33:06.032Z,22.33
2023-03-26T10:35:54.983Z,23.17
2023-03-26T10:38:51.736Z,20.83
2023-03-26T10:41:27.495Z,22.02
2023-03-26T10:44:19.301Z,20.98
2023-03-26T10:47:09.440Z,21.80
2023-03-26T10:49:51.250Z,22.33
2023-03-26T10:52:26.422Z,22.33
2023-03-26T10:55:02.095Z,22.52
2023-03-26T10:57:51.405Z,22.55
2023-03-26T11:00:26.520Z,24.23
2023-03-26T11:03:03.077Z,23.27
2023-03-26T11:05:47.400Z,23.77
2023-03-26T11:08:31.610Z,24.33
2023-03-26T11:11:25.166Z,23.55
2023-03-26T11:17:02.353Z,25.55
2023-03-26T11:19:40.632Z,23.75
2023-03-26T11:22:48.529Z,24.52
2023-03-26T11:25:37.102Z,23.55
2023-03-26T11:28:25.843Z,25.33
2023-03-26T11:31:17.222Z,25.45
2023-03-26T11:33:53.572Z,25.45
2023-03-26T11:36:30.857Z,26.02
2023-03-26T11:39:05.137Z,24.50
2023-03-26T11:41:34.112Z,25.58
2023-03-26T11:44:08.168Z,25.02
2023-03-26T11:46:46.851Z,24.80
2023-03-26T11:49:20.210Z,26.15
2023-03-26T11:51:50.194Z,25.48
2023-03-26T11:54:19.071Z,25.35
2023-03-26T11:57:05.754Z,25.60
2023-03-26T11:59:53.305Z,26.30
2023-03-26T12:02:38.984Z,26.88
2023-03-26T12:05:32.208Z,25.55
2023-03-26T12:08:03.284Z,26.20
2023-03-26T12:10:38.705Z,27.67
2023-03-26T12:13:24.568Z,27.35
2023-03-26T12:15:58.525Z,26.42
2023-03-26T12:18:29.494Z,27.13
2023-03-26T12:21:09.134Z,60.60
2023-03-26T12:23:40.453Z,44.88
2023-03-26T12:26:33.000Z,39.40
2023-03-26T12:29:12.952Z,29.92
2023-03-26T12:31:47.749Z,28.98
2023-03-26T12:34:19.755Z,28.38
2023-03-26T12:36:57.758Z,28.02
2023-03-26T12:40:07.821Z,28.92
2023-03-26T12:44:47.437Z,30.83
2023-03-26T12:45:24.142Z,30.45
2023-03-26T12:48:02.220Z,27.73
2023-03-26T12:50:58.339Z,31.10
2023-03-26T12:53:39.652Z,29.92
2023-03-26T12:56:09.306Z,28.98
2023-03-26T12:59:06.240Z,28.63
2023-03-26T13:01:56.895Z,30.98
2023-03-26T13:05:06.097Z,27.65
2023-03-26T13:08:08.572Z,28.25
2023-03-26T13:10:57.428Z,28.08
2023-03-26T13:13:53.790Z,29.15
2023-03-26T13:16:30.756Z,28.38
2023-03-26T13:19:06.870Z,30.10
2023-03-26T13:22:05.364Z,28.80
2023-03-26T13:24:48.142Z,28.05
2023-03-26T13:29:58.190Z,28.67
2023-03-26T13:32:40.327Z,29.80
2023-03-26T13:35:30.639Z,28.58
2023-03-26T13:38:25.118Z,30.15
2023-03-26T13:41:17.420Z,29.90
2023-03-26T13:43:53.274Z,29.77
2023-03-26T13:46:39.361Z,30.17
2023-03-26T13:49:14.991Z,32.08
2023-03-26T13:52:01.627Z,29.63
2023-03-26T13:54:33.784Z,29.83
2023-03-26T13:57:26.825Z,29.65
2023-03-26T14:02:32.563Z,30.83
2023-03-26T14:05:10.278Z,31.23
2023-03-26T14:07:47.758Z,31.52
2023-03-26T14:10:20.051Z,32.15
2023-03-26T14:12:56.904Z,31.73
2023-03-26T14:15:32.914Z,30.92
2023-03-26T14:18:29.648Z,30.92
2023-03-26T14:21:18.369Z,30.55
2023-03-26T14:24:08.310Z,30.65
2023-03-26T14:26:52.873Z,33.22
2023-03-26T14:29:56.880Z,33.90
2023-03-26T14:32:51.274Z,32.78
2023-03-26T14:35:55.769Z,33.85
2023-03-26T14:38:36.623Z,33.58
2023-03-26T14:41:08.328Z,35.67
2023-03-26T14:43:58.045Z,34.10
2023-03-26T14:46:42.364Z,33.97
2023-03-26T14:49:39.394Z,34.58
